createdAt,value
2022-12-03T00:01:54.520Z,74.45
2022-12-03T00:04:21.392Z,73.97
2022-12-03T00:06:48.295Z,73.49
2022-12-03T00:09:15.276Z,73.47
2022-12-03T00:11:42.040Z,74.34
2022-12-03T00:14:08.971Z,74.37
2022-12-03T00:16:35.857Z,75.00
2022-12-03T00:19:02.850Z,74.66
2022-12-03T00:21:29.739Z,75.29
2022-12-03T00:23:56.529Z,75.62
2022-12-03T00:26:23.449Z,75.15
2022-12-03T00:28:50.421Z,76.18
2022-12-03T00:31:17.255Z,76.67
2022-12-03T00:33:44.163Z,77.31
2022-12-03T00:36:11.058Z,77.14
2022-12-03T00:38:37.893Z,76.07
2022-12-03T00:41:04.858Z,75.53
2022-12-03T00:43:31.704Z,75.03
2022-12-03T00:45:58.449Z,74.55
2022-12-03T00:48:25.586Z,73.71
2022-12-03T00:50:52.807Z,73.84
2022-12-03T00:53:19.716Z,76.83
2022-12-03T00:55:46.624Z,76.73
2022-12-03T00:58:13.444Z,77.90
2022-12-03T01:00:40.388Z,78.28
2022-12-03T01:03:07.543Z,78.14
2022-12-03T01:05:34.412Z,78.07
2022-12-03T01:08:01.252Z,77.94
2022-12-03T01:10:28.068Z,77.92
2022-12-03T01:12:55.015Z,77.66
2022-12-03T01:15:21.875Z,77.07
2022-12-03T01:17:48.744Z,77.95
2022-12-03T01:20:15.675Z,76.95
2022-12-03T01:22:42.616Z,77.39
2022-12-03T01:25:09.973Z,76.95
2022-12-03T01:27:36.915Z,76.93
2022-12-03T01:30:04.478Z,75.91
2022-12-03T01:32:31.408Z,75.44
2022-12-03T01:34:58.275Z,75.40
2022-12-03T01:37:27.227Z,75.24
2022-12-03T01:39:54.476Z,75.11
2022-12-03T01:42:27.773Z,75.50
2022-12-03T01:44:57.947Z,76.67
2022-12-03T01:47:30.071Z,76.46
2022-12-03T01:50:24.722Z,76.08
2022-12-03T01:52:53.691Z,76.41
2022-12-03T01:55:24.734Z,77.08
2022-12-03T01:57:55.352Z,76.72
2022-12-03T02:00:23.956Z,75.99
2022-12-03T02:02:54.352Z,75.70
2022-12-03T02:05:24.355Z,76.08
2022-12-03T02:07:51.335Z,79.13
2022-12-03T02:10:21.846Z,81.09
2022-12-03T02:12:56.886Z,79.53
2022-12-03T02:15:24.132Z,78.10
2022-12-03T02:17:51.058Z,78.30
2022-12-03T02:20:18.540Z,79.66
2022-12-03T02:22:57.468Z,80.39
2022-12-03T02:25:31.080Z,80.96
2022-12-03T02:27:59.220Z,80.97
2022-12-03T02:30:28.642Z,80.26
2022-12-03T02:32:56.429Z,79.46
2022-12-03T02:35:30.427Z,80.13
2022-12-03T02:38:19.701Z,79.35
2022-12-03T02:40:48.791Z,79.62
2022-12-03T02:43:17.791Z,80.10
2022-12-03T02:45:51.562Z,79.91
2022-12-03T02:48:23.872Z,79.54
2022-12-03T02:50:53.869Z,78.35
2022-12-03T02:53:25.535Z,78.83
2022-12-03T02:55:54.919Z,78.37
2022-12-03T02:58:23.706Z,77.94
2022-12-03T03:00:53.514Z,78.01
2022-12-03T03:03:22.326Z,77.31
2022-12-03T03:05:50.483Z,77.74
2022-12-03T03:08:18.218Z,77.56
2022-12-03T03:10:46.212Z,77.02
2022-12-03T03:13:14.833Z,76.10
2022-12-03T03:15:42.684Z,76.17
2022-12-03T03:18:10.758Z,76.51
2022-12-03T03:20:38.538Z,76.39
2022-12-03T03:23:11.364Z,76.09
2022-12-03T03:25:41.411Z,76.10
2022-12-03T03:28:08.595Z,75.91
2022-12-03T03:30:36.799Z,76.86
2022-12-03T03:33:03.713Z,76.42
2022-12-03T03:35:30.995Z,76.14
2022-12-03T03:37:58.539Z,76.26
2022-12-03T03:40:26.599Z,76.19
2022-12-03T03:42:53.682Z,76.62
2022-12-03T03:45:25.492Z,78.28
2022-12-03T03:47:57.142Z,81.15
2022-12-03T03:50:24.495Z,81.34
2022-12-03T03:52:51.821Z,81.33
2022-12-03T03:55:18.807Z,79.56
2022-12-03T03:57:45.785Z,79.26
2022-12-03T04:00:13.046Z,77.51
2022-12-03T04:02:41.062Z,77.04
2022-12-03T04:05:11.483Z,78.06
2022-12-03T04:07:38.439Z,79.86
2022-12-03T04:10:06.037Z,81.40
2022-12-03T04:12:32.943Z,80.66
2022-12-03T04:14:59.945Z,78.47
2022-12-03T04:17:26.892Z,78.58
2022-12-03T04:19:54.035Z,79.24
2022-12-03T04:22:20.959Z,80.21
2022-12-03T04:24:47.892Z,83.05
2022-12-03T04:27:14.725Z,82.95
2022-12-03T04:29:41.665Z,82.47
2022-12-03T04:32:08.540Z,81.47
2022-12-03T04:34:35.546Z,82.20
2022-12-03T04:37:02.531Z,85.13
2022-12-03T04:39:29.390Z,88.11
2022-12-03T04:41:56.218Z,88.44
2022-12-03T04:44:23.067Z,88.44
2022-12-03T04:46:49.998Z,86.74
2022-12-03T04:49:16.698Z,85.52
2022-12-03T04:51:43.473Z,84.08
2022-12-03T04:54:10.491Z,84.21
2022-12-03T04:56:37.415Z,83.36
2022-12-03T04:59:04.707Z,82.19
2022-12-03T05:01:31.671Z,82.24
2022-12-03T05:03:58.658Z,82.15
2022-12-03T05:06:25.675Z,81.96
2022-12-03T05:08:52.535Z,81.42
2022-12-03T05:11:19.429Z,80.82
2022-12-03T05:13:46.292Z,80.09
2022-12-03T05:16:13.345Z,79.60
2022-12-03T05:18:40.180Z,79.95
2022-12-03T05:21:07.117Z,81.53
2022-12-03T05:23:33.939Z,83.60
2022-12-03T05:26:00.727Z,82.86
2022-12-03T05:28:27.647Z,82.52
2022-12-03T05:30:54.579Z,81.88
2022-12-03T05:33:21.454Z,80.68
2022-12-03T05:35:48.503Z,80.47
2022-12-03T05:38:15.352Z,80.24
2022-12-03T05:40:42.247Z,79.11
2022-12-03T05:43:09.191Z,78.31
2022-12-03T05:45:38.482Z,76.97
2022-12-03T05:48:07.387Z,77.05
2022-12-03T05:50:36.453Z,77.01
2022-12-03T05:53:03.477Z,76.21
2022-12-03T05:55:30.815Z,75.86
2022-12-03T05:57:57.881Z,75.74
2022-12-03T06:00:28.169Z,75.96
2022-12-03T06:02:55.880Z,76.57
2022-12-03T06:05:23.852Z,77.42
2022-12-03T06:07:52.587Z,76.66
2022-12-03T06:10:22.873Z,75.82
2022-12-03T06:12:50.141Z,75.86
2022-12-03T06:15:17.435Z,75.56
2022-12-03T06:17:44.335Z,76.64
2022-12-03T06:20:15.091Z,77.02
2022-12-03T06:22:42.175Z,76.21
2022-12-03T06:25:09.549Z,75.61
2022-12-03T06:27:36.774Z,74.27
2022-12-03T06:30:05.071Z,72.45
2022-12-03T06:32:31.995Z,72.02
2022-12-03T06:34:58.847Z,71.10
2022-12-03T06:37:25.741Z,70.04
2022-12-03T06:39:52.754Z,69.87
2022-12-03T06:42:19.593Z,70.25
2022-12-03T06:44:47.776Z,70.08
2022-12-03T06:47:14.742Z,71.03
2022-12-03T06:49:41.666Z,72.54
2022-12-03T06:52:08.462Z,73.81
2022-12-03T06:54:35.518Z,74.75
2022-12-03T06:57:02.335Z,74.84
2022-12-03T06:59:29.231Z,74.52
2022-12-03T07:01:56.180Z,75.58
2022-12-03T07:04:22.983Z,76.15
2022-12-03T07:06:49.883Z,77.20
2022-12-03T07:09:16.698Z,77.59
2022-12-03T07:11:44.103Z,78.10
2022-12-03T07:14:11.534Z,77.91
2022-12-03T07:16:39.414Z,77.48
2022-12-03T07:19:07.104Z,77.45
2022-12-03T07:21:34.232Z,77.04
2022-12-03T07:24:01.145Z,76.95
2022-12-03T07:26:28.096Z,77.12
2022-12-03T07:28:54.860Z,77.35
2022-12-03T07:31:21.813Z,77.85
2022-12-03T07:33:48.759Z,77.80
2022-12-03T07:36:15.691Z,78.02
2022-12-03T07:38:42.678Z,77.59
2022-12-03T07:41:09.516Z,76.71
2022-12-03T07:43:36.383Z,76.16
2022-12-03T07:46:03.284Z,77.41
2022-12-03T07:48:30.072Z,77.20
2022-12-03T07:50:56.891Z,78.49
2022-12-03T07:53:23.943Z,79.78
2022-12-03T07:55:50.843Z,81.09
2022-12-03T07:58:17.831Z,81.52
2022-12-03T08:00:44.882Z,81.70
2022-12-03T08:03:12.011Z,82.57
2022-12-03T08:05:38.926Z,82.18
2022-12-03T08:08:06.145Z,82.25
2022-12-03T08:10:33.174Z,81.61
2022-12-03T08:13:00.359Z,81.30
2022-12-03T08:15:39.065Z,80.66
2022-12-03T08:18:17.798Z,79.72
2022-12-03T08:20:46.898Z,79.37
2022-12-03T08:23:25.475Z,78.80
2022-12-03T08:25:53.079Z,79.10
2022-12-03T08:28:25.056Z,79.23
2022-12-03T08:31:10.376Z,80.06
2022-12-03T08:33:39.123Z,78.76
2022-12-03T08:36:16.775Z,78.14
2022-12-03T08:38:51.440Z,78.19
2022-12-03T08:41:20.090Z,78.31
2022-12-03T08:43:46.972Z,78.55
2022-12-03T08:46:19.180Z,78.08
2022-12-03T08:48:49.703Z,77.49
2022-12-03T08:51:22.450Z,77.20
2022-12-03T08:54:02.106Z,76.74
2022-12-03T08:56:33.887Z,75.90
2022-12-03T08:59:24.612Z,76.40
2022-12-03T09:01:51.756Z,76.56
2022-12-03T09:04:27.709Z,76.54
2022-12-03T09:06:55.501Z,77.42
2022-12-03T09:09:23.143Z,77.14
2022-12-03T09:11:51.097Z,77.04
2022-12-03T09:14:19.166Z,77.00
2022-12-03T09:16:48.738Z,77.00
2022-12-03T09:19:15.921Z,76.66
2022-12-03T09:21:42.861Z,75.87
2022-12-03T09:24:09.719Z,75.90
2022-12-03T09:26:36.782Z,76.77
2022-12-03T09:29:08.934Z,77.11
2022-12-03T09:31:38.886Z,76.39
2022-12-03T09:34:06.864Z,76.12
2022-12-03T09:36:34.059Z,75.82
2022-12-03T09:39:00.932Z,74.82
2022-12-03T09:41:28.124Z,74.39
2022-12-03T09:44:04.887Z,73.62
2022-12-03T09:46:43.288Z,73.63
2022-12-03T09:49:16.000Z,73.54
2022-12-03T09:54:29.534Z,73.66
2022-12-03T09:56:59.772Z,74.07
2022-12-03T09:59:32.102Z,74.17
2022-12-03T10:01:59.957Z,74.48
2022-12-03T10:04:28.221Z,74.19
2022-12-03T10:06:57.569Z,73.90
2022-12-03T10:09:27.303Z,73.61
2022-12-03T10:11:59.842Z,72.91
2022-12-03T10:14:27.902Z,71.54
2022-12-03T10:16:55.447Z,71.92
2022-12-03T10:19:26.794Z,71.66
2022-12-03T10:21:53.685Z,72.71
2022-12-03T10:24:25.375Z,73.00
2022-12-03T10:26:58.799Z,72.48
2022-12-03T10:29:33.248Z,72.80
2022-12-03T10:32:18.914Z,71.26
2022-12-03T10:34:45.787Z,71.30
2022-12-03T10:37:21.589Z,71.78
2022-12-03T10:40:01.761Z,72.18
2022-12-03T10:42:32.445Z,71.98
2022-12-03T10:45:23.019Z,72.54
2022-12-03T10:48:06.047Z,72.08
2022-12-03T10:50:33.708Z,72.02
2022-12-03T10:53:00.659Z,72.49
2022-12-03T10:55:30.958Z,72.74
2022-12-03T10:57:57.921Z,72.64
2022-12-03T11:00:24.712Z,72.83
2022-12-03T11:02:57.023Z,71.57
2022-12-03T11:05:26.857Z,71.17
2022-12-03T11:07:54.311Z,71.40
2022-12-03T11:10:21.647Z,69.93
2022-12-03T11:13:26.907Z,70.13
2022-12-03T11:15:54.159Z,69.08
2022-12-03T11:18:39.074Z,68.75
2022-12-03T11:21:10.960Z,68.62
2022-12-03T11:23:46.699Z,68.82
2022-12-03T11:26:18.926Z,68.47
2022-12-03T11:28:46.731Z,68.42
2022-12-03T11:31:40.796Z,69.15
2022-12-03T11:34:34.137Z,67.69
2022-12-03T11:37:09.899Z,67.48
2022-12-03T11:39:52.638Z,66.50
2022-12-03T11:42:22.727Z,66.01
2022-12-03T11:45:09.557Z,65.41
2022-12-03T11:47:44.129Z,65.88
2022-12-03T11:50:27.360Z,65.55
2022-12-03T11:53:23.895Z,65.64
2022-12-03T11:55:54.117Z,65.33
2022-12-03T11:58:28.264Z,64.04
2022-12-03T12:00:57.666Z,63.75
2022-12-03T12:03:24.598Z,64.48
2022-12-03T12:06:16.743Z,63.95
2022-12-03T12:08:52.336Z,64.79
2022-12-03T12:11:39.924Z,63.71
2022-12-03T12:14:09.246Z,63.75
2022-12-03T12:16:45.236Z,62.65
2022-12-03T12:19:54.105Z,63.14
2022-12-03T12:22:24.130Z,62.61
2022-12-03T12:25:39.574Z,63.07
2022-12-03T12:28:07.084Z,62.65
2022-12-03T12:30:34.325Z,62.28
2022-12-03T12:33:11.197Z,62.39
2022-12-03T12:35:38.147Z,63.22
2022-12-03T12:38:07.966Z,64.35
2022-12-03T12:40:37.877Z,63.27
2022-12-03T12:43:23.733Z,62.61
2022-12-03T12:45:54.751Z,63.17
2022-12-03T12:48:27.922Z,63.24
2022-12-03T12:51:00.991Z,63.53
2022-12-03T12:53:35.976Z,62.87
2022-12-03T12:56:28.464Z,62.17
2022-12-03T12:58:59.434Z,62.64
2022-12-03T13:01:31.058Z,62.13
2022-12-03T13:03:59.247Z,62.71
2022-12-03T13:06:28.575Z,63.73
2022-12-03T13:08:56.134Z,63.05
2022-12-03T13:11:39.695Z,61.79
2022-12-03T13:14:13.665Z,61.82
2022-12-03T13:16:40.580Z,61.95
2022-12-03T13:19:21.444Z,62.94
2022-12-03T13:21:49.126Z,62.33
2022-12-03T13:24:38.920Z,62.70
2022-12-03T13:27:23.091Z,62.80
2022-12-03T13:30:19.374Z,63.00
2022-12-03T13:32:46.355Z,62.27
2022-12-03T13:35:27.003Z,61.85
2022-12-03T13:37:54.144Z,62.38
2022-12-03T13:40:32.450Z,62.84
2022-12-03T13:42:59.730Z,62.68
2022-12-03T13:45:38.736Z,63.05
2022-12-03T13:48:27.586Z,62.67
2022-12-03T13:50:54.765Z,62.17
2022-12-03T13:53:47.939Z,61.39
2022-12-03T13:56:30.435Z,61.52
2022-12-03T13:58:58.803Z,62.27
2022-12-03T14:01:26.187Z,62.27
2022-12-03T14:03:53.607Z,62.61
2022-12-03T14:06:20.473Z,64.71
2022-12-03T14:08:47.591Z,64.85
2022-12-03T14:11:14.580Z,65.93
2022-12-03T14:13:41.403Z,66.41
2022-12-03T14:16:08.449Z,65.44
2022-12-03T14:18:35.507Z,65.61
2022-12-03T14:21:02.326Z,65.98
2022-12-03T14:23:29.315Z,64.59
2022-12-03T14:25:56.152Z,64.50
2022-12-03T14:28:23.205Z,64.91
2022-12-03T14:30:50.137Z,64.53
2022-12-03T14:33:16.955Z,63.69
2022-12-03T14:35:43.906Z,63.35
2022-12-03T14:38:11.012Z,63.65
2022-12-03T14:40:37.917Z,63.52
2022-12-03T14:43:07.011Z,63.30
2022-12-03T14:45:33.893Z,62.83
2022-12-03T14:48:00.884Z,63.37
2022-12-03T14:50:27.851Z,62.28
2022-12-03T14:52:54.756Z,62.44
2022-12-03T14:55:22.031Z,63.06
2022-12-03T14:57:48.963Z,63.46
2022-12-03T15:00:16.542Z,62.88
2022-12-03T15:02:43.476Z,63.43
2022-12-03T15:05:10.651Z,63.13
2022-12-03T15:07:37.516Z,63.55
2022-12-03T15:10:04.832Z,63.08
2022-12-03T15:12:31.860Z,62.86
2022-12-03T15:14:58.917Z,62.98
2022-12-03T15:17:31.517Z,62.57
2022-12-03T15:19:59.104Z,62.84
2022-12-03T15:22:26.056Z,63.10
2022-12-03T15:24:53.073Z,62.45
2022-12-03T15:27:22.178Z,63.25
2022-12-03T15:29:49.181Z,63.61
2022-12-03T15:32:16.144Z,63.42
2022-12-03T15:34:43.108Z,63.32
2022-12-03T15:37:10.088Z,64.16
2022-12-03T15:39:37.177Z,63.27
2022-12-03T15:42:04.170Z,64.33
2022-12-03T15:44:31.113Z,64.41
2022-12-03T15:46:58.032Z,65.87
2022-12-03T15:49:24.871Z,65.94
2022-12-03T15:51:51.754Z,66.78
2022-12-03T15:54:18.570Z,66.93
2022-12-03T15:56:45.612Z,67.27
2022-12-03T15:59:12.457Z,67.77
2022-12-03T16:01:39.429Z,67.37
2022-12-03T16:04:06.420Z,67.65
2022-12-03T16:06:33.381Z,68.94
2022-12-03T16:09:00.264Z,68.76
2022-12-03T16:11:27.228Z,68.34
2022-12-03T16:13:54.155Z,69.02
2022-12-03T16:16:23.884Z,68.07
2022-12-03T16:18:50.774Z,68.09
2022-12-03T16:21:20.837Z,68.28
2022-12-03T16:23:51.864Z,68.14
2022-12-03T16:26:18.971Z,67.91
2022-12-03T16:28:45.842Z,67.91
2022-12-03T16:31:12.832Z,67.67
2022-12-03T16:33:39.744Z,67.92
2022-12-03T16:36:06.949Z,68.23
2022-12-03T16:38:33.926Z,68.27
2022-12-03T16:41:01.110Z,68.20
2022-12-03T16:43:28.441Z,68.13
2022-12-03T16:45:55.799Z,68.29
2022-12-03T16:48:23.471Z,68.28
2022-12-03T16:50:50.406Z,67.76
2022-12-03T16:53:17.370Z,67.54
2022-12-03T16:55:46.039Z,67.91
2022-12-03T16:58:12.993Z,69.26
2022-12-03T17:00:39.931Z,68.56
2022-12-03T17:03:14.986Z,68.00
2022-12-03T17:05:41.908Z,67.08
2022-12-03T17:08:10.678Z,67.34
2022-12-03T17:10:38.372Z,66.73
2022-12-03T17:13:10.171Z,66.75
2022-12-03T17:15:38.212Z,67.16
2022-12-03T17:18:05.635Z,67.60
2022-12-03T17:20:33.784Z,67.27
2022-12-03T17:23:00.875Z,67.33
2022-12-03T17:25:28.618Z,67.27
2022-12-03T17:27:55.564Z,67.12
2022-12-03T17:30:22.612Z,67.10
2022-12-03T17:32:49.586Z,67.63
2022-12-03T17:35:17.058Z,67.42
2022-12-03T17:37:43.803Z,67.46
2022-12-03T17:40:13.061Z,67.30
2022-12-03T17:42:40.280Z,66.46
2022-12-03T17:45:07.871Z,66.95
2022-12-03T17:47:34.909Z,67.43
2022-12-03T17:50:01.931Z,66.54
2022-12-03T17:52:31.871Z,67.45
2022-12-03T17:55:23.637Z,67.26
2022-12-03T17:57:45.683Z,67.38
2022-12-03T18:00:12.982Z,67.70
2022-12-03T18:02:39.927Z,67.62
2022-12-03T18:05:07.118Z,67.97
2022-12-03T18:07:34.317Z,68.08
2022-12-03T18:10:01.479Z,68.15
2022-12-03T18:12:28.652Z,68.32
2022-12-03T18:14:55.475Z,67.29
2022-12-03T18:17:22.269Z,67.69
2022-12-03T18:19:49.210Z,67.61
2022-12-03T18:22:17.029Z,68.25
2022-12-03T18:24:46.285Z,67.99
2022-12-03T18:27:14.699Z,67.76
2022-12-03T18:29:41.553Z,68.86
2022-12-03T18:32:27.191Z,68.65
2022-12-03T18:35:01.285Z,68.24
2022-12-03T18:37:30.121Z,68.46
2022-12-03T18:39:58.500Z,68.90
2022-12-03T18:42:26.093Z,67.52
2022-12-03T18:44:55.502Z,67.37
2022-12-03T18:47:27.013Z,67.34
2022-12-03T18:49:54.322Z,67.36
2022-12-03T18:52:23.075Z,67.52
2022-12-03T18:54:50.222Z,68.47
2022-12-03T18:57:17.079Z,68.05
2022-12-03T18:59:43.865Z,67.72
2022-12-03T19:02:45.819Z,67.44
2022-12-03T19:05:04.710Z,67.39
2022-12-03T19:07:31.580Z,67.66
2022-12-03T19:09:58.478Z,66.86
2022-12-03T19:12:25.406Z,66.97
2022-12-03T19:14:52.300Z,67.98
2022-12-03T19:17:19.362Z,68.64
2022-12-03T19:19:46.204Z,68.88
2022-12-03T19:22:13.022Z,69.13
2022-12-03T19:24:39.925Z,69.35
2022-12-03T19:27:16.127Z,68.98
2022-12-03T19:29:42.967Z,68.24
2022-12-03T19:32:09.788Z,68.64
2022-12-03T19:34:36.895Z,68.37
2022-12-03T19:37:03.975Z,68.18
2022-12-03T19:39:33.700Z,66.96
2022-12-03T19:42:00.634Z,68.11
2022-12-03T19:44:27.541Z,67.80
2022-12-03T19:46:54.509Z,67.61
2022-12-03T19:49:21.551Z,67.37
2022-12-03T19:51:48.715Z,68.03
2022-12-03T19:54:17.020Z,67.73
2022-12-03T19:56:44.211Z,67.50
2022-12-03T19:59:12.980Z,67.76
2022-12-03T20:01:41.026Z,67.35
2022-12-03T20:04:08.821Z,67.95
2022-12-03T20:06:38.141Z,68.52
2022-12-03T20:09:15.538Z,68.69
2022-12-03T20:11:42.914Z,69.24
2022-12-03T20:14:13.662Z,69.66
2022-12-03T20:16:40.652Z,69.42
2022-12-03T20:19:10.129Z,69.53
2022-12-03T20:21:38.551Z,69.23
2022-12-03T20:24:06.165Z,70.08
2022-12-03T20:26:32.960Z,69.32
2022-12-03T20:29:00.109Z,69.43
2022-12-03T20:31:29.888Z,69.02
2022-12-03T20:33:59.358Z,69.51
2022-12-03T20:36:28.435Z,69.83
2022-12-03T20:38:57.182Z,69.40
2022-12-03T20:41:24.481Z,69.90
2022-12-03T20:43:51.847Z,69.75
2022-12-03T20:46:20.373Z,69.99
2022-12-03T20:48:47.371Z,69.15
2022-12-03T20:51:17.744Z,69.87
2022-12-03T20:53:45.859Z,69.00
2022-12-03T20:56:34.930Z,69.25
2022-12-03T20:59:07.599Z,69.48
2022-12-03T21:01:35.188Z,68.74
2022-12-03T21:04:02.479Z,68.86
2022-12-03T21:06:29.248Z,69.01
2022-12-03T21:08:58.115Z,69.39
2022-12-03T21:11:27.566Z,68.87
2022-12-03T21:13:55.219Z,68.94
2022-12-03T21:16:45.476Z,68.71
2022-12-03T21:19:12.021Z,68.12
2022-12-03T21:21:38.977Z,68.32
2022-12-03T21:24:06.104Z,67.91
2022-12-03T21:26:33.396Z,66.92
2022-12-03T21:29:01.012Z,67.45
2022-12-03T21:31:28.057Z,67.80
2022-12-03T21:33:55.991Z,67.09
2022-12-03T21:36:23.734Z,67.74
2022-12-03T21:38:51.400Z,67.58
2022-12-03T21:41:18.538Z,67.18
2022-12-03T21:43:45.427Z,66.67
2022-12-03T21:47:09.454Z,65.65
2022-12-03T21:49:02.273Z,66.51
2022-12-03T21:51:29.116Z,66.16
2022-12-03T21:53:56.160Z,66.64
2022-12-03T21:56:23.296Z,66.61
2022-12-03T21:58:50.170Z,66.51
2022-12-03T22:01:22.737Z,66.71
2022-12-03T22:03:50.203Z,66.21
2022-12-03T22:06:19.071Z,66.93
2022-12-03T22:08:46.592Z,66.54
2022-12-03T22:11:16.411Z,66.13
2022-12-03T22:13:43.566Z,65.96
2022-12-03T22:16:13.447Z,65.57
2022-12-03T22:18:40.838Z,65.14
2022-12-03T22:21:13.202Z,65.55
2022-12-03T22:23:40.043Z,65.85
2022-12-03T22:26:09.116Z,66.66
2022-12-03T22:28:35.965Z,66.47
2022-12-03T22:31:07.500Z,65.80
2022-12-03T22:33:35.443Z,66.34
2022-12-03T22:36:05.425Z,66.72
2022-12-03T22:38:32.778Z,66.88
2022-12-03T22:41:00.234Z,66.65
2022-12-03T22:43:27.163Z,67.49
2022-12-03T22:45:55.177Z,67.17
2022-12-03T22:48:23.122Z,66.74
2022-12-03T22:50:51.730Z,66.57
2022-12-03T22:53:19.371Z,66.33
2022-12-03T22:55:55.620Z,66.48
2022-12-03T22:58:22.564Z,67.16
2022-12-03T23:00:49.806Z,67.48
2022-12-03T23:03:16.756Z,67.73
2022-12-03T23:05:43.720Z,67.38
2022-12-03T23:08:21.100Z,68.13
2022-12-03T23:10:50.824Z,68.28
2022-12-03T23:13:19.396Z,68.51
2022-12-03T23:15:52.971Z,68.47
2022-12-03T23:18:20.875Z,67.88
2022-12-03T23:20:50.787Z,67.75
2022-12-03T23:23:19.349Z,68.37
2022-12-03T23:26:04.023Z,68.13
2022-12-03T23:28:33.241Z,68.03
2022-12-03T23:31:00.545Z,67.58
2022-12-03T23:33:28.283Z,68.04
2022-12-03T23:35:55.204Z,68.51
2022-12-03T23:38:22.496Z,68.64
2022-12-03T23:40:49.980Z,69.04
2022-12-03T23:43:17.031Z,68.09
2022-12-03T23:45:43.932Z,68.56
2022-12-03T23:48:10.944Z,68.38
2022-12-03T23:50:41.060Z,68.53
2022-12-03T23:53:07.911Z,68.02
2022-12-03T23:55:34.847Z,68.79
2022-12-03T23:58:01.805Z,68.74
